Time;durP1;ratioP1;P1;durP2;ratioP2;P2;SDS_P1;SDS_P2;PMS_P1;PMS_P2;Temp;Humidity;BMP_temperature;BMP_pressure;BME280_temperature;BME280_humidity;BME280_pressure;Samples;Min_cycle;Max_cycle;Signal;HPM_P1;HPM_P2
2023/05/10 00:00:22;;;;;;;2.30;0.50;;;15.40;99.90;;;;;;5014691;28;20374;-77
2023/05/10 00:02:49;;;;;;;0.52;0.52;;;15.30;99.90;;;;;;5023180;28;20463;-77
2023/05/10 00:05:16;;;;;;;0.30;0.30;;;15.30;99.90;;;;;;5037520;28;20054;-77
2023/05/10 00:07:44;;;;;;;1.95;0.60;;;15.30;99.90;;;;;;5040944;28;20054;-77
2023/05/10 00:10:11;;;;;;;2.85;0.50;;;15.30;99.90;;;;;;5017485;28;20294;-77
2023/05/10 00:12:38;;;;;;;2.53;0.50;;;15.30;99.90;;;;;;5017815;28;20045;-77
2023/05/10 00:15:05;;;;;;;1.85;0.40;;;15.30;99.90;;;;;;5030165;28;20050;-77
2023/05/10 00:17:32;;;;;;;0.40;0.40;;;15.30;99.90;;;;;;5022929;28;20124;-76
2023/05/10 00:20:00;;;;;;;0.40;0.40;;;15.30;99.90;;;;;;5040791;28;20088;-77
2023/05/10 00:22:26;;;;;;;7.13;0.77;;;15.30;99.90;;;;;;5007789;28;20053;-77
2023/05/10 00:24:53;;;;;;;1.70;0.40;;;15.40;99.90;;;;;;5034672;28;20081;-77
2023/05/10 00:27:20;;;;;;;2.05;0.63;;;15.40;99.90;;;;;;5033333;28;20046;-76
2023/05/10 00:29:46;;;;;;;1.90;0.38;;;15.40;99.90;;;;;;5016300;28;20042;-77
2023/05/10 00:32:13;;;;;;;0.70;0.50;;;15.40;99.90;;;;;;5021937;28;20408;-76
2023/05/10 00:34:40;;;;;;;0.60;0.60;;;15.40;99.90;;;;;;5025595;28;20529;-76
2023/05/10 00:37:07;;;;;;;0.68;0.57;;;15.30;99.90;;;;;;5027002;28;20409;-77
2023/05/10 00:39:34;;;;;;;5.85;0.60;;;15.40;99.90;;;;;;5036137;28;20045;-76
2023/05/10 00:42:00;;;;;;;1.92;0.63;;;15.40;99.90;;;;;;5018111;28;20049;-76
2023/05/10 00:44:27;;;;;;;2.08;0.55;;;15.30;99.90;;;;;;4997761;28;20057;-76
2023/05/10 00:46:54;;;;;;;0.70;0.50;;;15.30;99.90;;;;;;5019633;28;20053;-77
2023/05/10 00:49:21;;;;;;;0.85;0.57;;;15.30;99.90;;;;;;5038928;28;20413;-76
2023/05/10 00:51:48;;;;;;;1.17;0.60;;;15.30;99.90;;;;;;5025540;28;20088;-77
2023/05/10 00:54:15;;;;;;;0.73;0.60;;;15.30;99.90;;;;;;5017281;28;20136;-76
2023/05/10 00:56:48;;;;;;;2.58;0.50;;;15.40;99.90;;;;;;5017666;28;20057;-76
2023/05/10 00:59:16;;;;;;;2.92;0.55;;;15.40;99.90;;;;;;5030400;28;20050;-77
2023/05/10 01:01:44;;;;;;;1.20;0.60;;;15.30;99.90;;;;;;5023486;28;20045;-77
2023/05/10 01:04:15;;;;;;;0.80;0.50;;;15.40;99.90;;;;;;5039438;28;20065;-76
2023/05/10 01:06:41;;;;;;;;;;;15.30;99.90;;;;;;5044061;28;20077;-76
2023/05/10 01:09:09;;;;;;;1.70;0.63;;;15.30;99.90;;;;;;5021696;28;20293;-76
2023/05/10 01:11:38;;;;;;;1.30;1.17;;;15.30;99.90;;;;;;5020326;28;20412;-76
2023/05/10 01:14:05;;;;;;;0.40;0.40;;;15.30;99.90;;;;;;5017695;28;20054;-77
2023/05/10 01:16:37;;;;;;;2.97;0.65;;;15.30;99.90;;;;;;5022061;28;20133;-77
2023/05/10 01:19:23;;;;;;;5.32;0.60;;;15.20;99.90;;;;;;5038836;28;20049;-76
2023/05/10 01:22:03;;;;;;;0.80;0.60;;;15.20;99.90;;;;;;5023088;28;20050;-77
2023/05/10 01:24:32;;;;;;;1.40;0.77;;;15.20;99.90;;;;;;5016070;28;20053;-77
2023/05/10 01:27:36;;;;;;;2.05;0.70;;;15.20;99.90;;;;;;5026033;28;20145;-77
2023/05/10 01:30:25;;;;;;;2.83;0.73;;;15.20;99.90;;;;;;5010053;28;20061;-76
2023/05/10 01:33:04;;;;;;;1.35;0.80;;;15.20;99.90;;;;;;5017290;28;20053;-77
2023/05/10 01:35:32;;;;;;;1.05;0.63;;;15.20;99.90;;;;;;5039129;28;20049;-77
2023/05/10 01:38:22;;;;;;;1.38;0.70;;;15.20;99.90;;;;;;5021030;28;20129;-77
2023/05/10 01:43:46;;;;;;;1.35;0.70;;;15.20;99.90;;;;;;4915421;29;20360;-77
2023/05/10 01:46:20;;;;;;;1.17;0.70;;;15.10;99.90;;;;;;4916640;29;20485;-77
2023/05/10 01:48:50;;;;;;;4.55;1.20;;;15.10;99.90;;;;;;4929570;29;20065;-77
2023/05/10 01:51:24;;;;;;;3.30;0.70;;;15.10;99.90;;;;;;4910353;29;20076;-77
2023/05/10 01:53:54;;;;;;;0.95;0.88;;;15.00;99.90;;;;;;4915916;29;20083;-77
2023/05/10 01:56:26;;;;;;;0.93;0.90;;;15.00;99.90;;;;;;4912831;29;20131;-77
2023/05/10 01:58:54;;;;;;;3.30;0.75;;;15.00;99.90;;;;;;4914830;29;20078;-77
2023/05/10 02:01:21;;;;;;;0.98;0.80;;;14.90;99.90;;;;;;4917202;29;20079;-76
2023/05/10 02:03:50;;;;;;;4.05;0.90;;;14.90;99.90;;;;;;4905728;29;20080;-77
2023/05/10 02:06:21;;;;;;;1.70;0.80;;;14.90;99.90;;;;;;4914997;29;20464;-77
2023/05/10 02:08:50;;;;;;;0.73;0.70;;;14.90;99.90;;;;;;4914587;29;20075;-77
2023/05/10 02:11:19;;;;;;;1.70;0.88;;;14.90;99.90;;;;;;4913141;29;20484;-77
2023/05/10 02:13:47;;;;;;;1.00;0.70;;;14.90;99.90;;;;;;4916792;29;20080;-77
2023/05/10 02:16:17;;;;;;;0.88;0.80;;;14.90;99.90;;;;;;4931657;29;20423;-77
2023/05/10 02:18:46;;;;;;;0.80;0.63;;;14.90;99.90;;;;;;4905663;29;20064;-77
2023/05/10 02:21:15;;;;;;;4.15;0.88;;;14.90;99.90;;;;;;4914574;29;20056;-77
2023/05/10 02:23:43;;;;;;;3.45;1.13;;;14.90;99.90;;;;;;4917222;29;20424;-76
2023/05/10 02:26:11;;;;;;;1.48;0.60;;;14.90;99.90;;;;;;4912917;29;20108;-77
2023/05/10 02:28:39;;;;;;;3.75;0.75;;;14.90;99.90;;;;;;4903010;29;20060;-77
2023/05/10 02:31:09;;;;;;;1.15;0.85;;;14.90;99.90;;;;;;4916902;29;20404;-77
2023/05/10 02:33:40;;;;;;;1.15;1.00;;;14.80;99.90;;;;;;4909790;29;20478;-77
2023/05/10 02:36:08;;;;;;;2.10;0.90;;;14.90;99.90;;;;;;4911797;29;20054;-76
2023/05/10 02:38:36;;;;;;;4.05;1.10;;;14.90;99.90;;;;;;4905047;29;20049;-77
2023/05/10 02:41:05;;;;;;;2.10;1.17;;;14.90;99.90;;;;;;4915835;29;20139;-77
2023/05/10 02:43:33;;;;;;;1.05;0.80;;;14.90;99.90;;;;;;4950935;29;20058;-76
2023/05/10 02:46:00;;;;;;;2.65;1.10;;;14.90;99.90;;;;;;4936207;29;20094;-77
2023/05/10 02:48:28;;;;;;;2.10;1.20;;;14.90;99.90;;;;;;4929394;29;20047;-77
2023/05/10 02:51:00;;;;;;;1.38;1.00;;;14.90;99.90;;;;;;4936867;29;20090;-77
2023/05/10 02:53:35;;;;;;;1.10;0.77;;;14.90;99.90;;;;;;4925587;29;20123;-77
2023/05/10 02:56:09;;;;;;;1.10;0.82;;;15.00;99.90;;;;;;4929077;29;20052;-78
2023/05/10 02:58:35;;;;;;;1.02;0.80;;;15.00;99.90;;;;;;4935741;29;20051;-77
2023/05/10 03:01:02;;;;;;;2.90;0.95;;;15.00;99.90;;;;;;4936031;29;20473;-76
2023/05/10 03:03:29;;;;;;;2.47;0.80;;;15.00;99.90;;;;;;4935174;29;20138;-77
2023/05/10 03:05:56;;;;;;;1.02;0.90;;;15.00;99.90;;;;;;4934880;29;20056;-75
2023/05/10 03:08:23;;;;;;;2.15;1.08;;;15.00;99.90;;;;;;4936719;29;20084;-77
2023/05/10 03:11:07;;;;;;;0.75;0.70;;;15.00;99.90;;;;;;4933215;29;20099;-77
2023/05/10 03:13:53;;;;;;;1.17;0.55;;;15.00;99.90;;;;;;4933576;29;20043;-76
2023/05/10 03:16:51;;;;;;;1.15;0.60;;;15.00;99.90;;;;;;4924780;29;20088;-77
2023/05/10 03:19:26;;;;;;;3.35;0.85;;;15.00;99.90;;;;;;4949913;29;20112;-77
2023/05/10 03:21:54;;;;;;;3.25;0.60;;;15.00;99.90;;;;;;4928811;29;20048;-77
2023/05/10 03:24:23;;;;;;;4.75;1.25;;;14.90;99.90;;;;;;4951308;28;20504;-77
2023/05/10 03:26:51;;;;;;;3.33;0.60;;;14.90;99.90;;;;;;4935287;29;20566;-77
2023/05/10 03:29:20;;;;;;;0.60;0.60;;;14.90;99.90;;;;;;4938643;29;20546;-77
2023/05/10 03:31:46;;;;;;;0.75;0.68;;;14.80;99.90;;;;;;4937093;29;20055;-77
2023/05/10 03:34:13;;;;;;;1.35;0.77;;;14.80;99.90;;;;;;4952245;29;20111;-76
2023/05/10 03:36:40;;;;;;;0.82;0.80;;;14.80;99.90;;;;;;4936177;29;20051;-76
2023/05/10 03:39:07;;;;;;;1.83;0.70;;;14.80;99.90;;;;;;4937692;29;20056;-76
2023/05/10 03:41:33;;;;;;;2.42;1.00;;;14.80;99.90;;;;;;4935901;29;20061;-77
2023/05/10 03:44:00;;;;;;;1.60;0.90;;;14.80;99.90;;;;;;4938848;29;20455;-77
2023/05/10 03:46:27;;;;;;;1.98;0.95;;;14.80;99.90;;;;;;4937924;29;20055;-77
2023/05/10 03:48:53;;;;;;;1.17;0.80;;;14.80;99.90;;;;;;4935813;29;20067;-77
2023/05/10 03:51:20;;;;;;;0.98;0.90;;;14.80;99.90;;;;;;4936791;29;20052;-77
2023/05/10 03:53:47;;;;;;;1.02;0.82;;;14.80;99.90;;;;;;4936037;29;20436;-75
2023/05/10 03:56:14;;;;;;;2.42;1.10;;;14.70;99.90;;;;;;4928768;29;20492;-77
2023/05/10 03:58:41;;;;;;;2.88;1.00;;;14.70;99.90;;;;;;4933127;29;20503;-76
2023/05/10 04:01:07;;;;;;;2.58;0.80;;;14.60;99.90;;;;;;4936667;29;20130;-77
2023/05/10 04:03:36;;;;;;;2.55;1.13;;;14.60;99.90;;;;;;4927180;29;20059;-76
2023/05/10 04:06:03;;;;;;;1.50;1.08;;;14.60;99.90;;;;;;4928169;29;20058;-77
2023/05/10 04:08:30;;;;;;;1.63;1.17;;;14.60;99.90;;;;;;4935443;29;20074;-75
2023/05/10 04:11:11;;;;;;;3.90;1.17;;;14.60;99.90;;;;;;4932093;29;20055;-77
2023/05/10 04:13:37;;;;;;;0.77;0.77;;;14.50;99.90;;;;;;4951260;29;20052;-77
2023/05/10 04:16:05;;;;;;;1.15;1.02;;;14.50;99.90;;;;;;4925193;29;20056;-76
2023/05/10 04:18:32;;;;;;;1.85;1.10;;;14.40;99.90;;;;;;4934227;29;20052;-77
2023/05/10 04:20:58;;;;;;;2.58;1.17;;;14.40;99.90;;;;;;4927694;29;20044;-77
2023/05/10 04:23:26;;;;;;;3.70;1.00;;;14.40;99.90;;;;;;4950873;29;20051;-77
2023/05/10 04:25:59;;;;;;;1.55;1.17;;;14.40;99.90;;;;;;4932399;29;20048;-76
2023/05/10 04:28:27;;;;;;;4.00;1.05;;;14.30;99.90;;;;;;4933832;29;20055;-77
2023/05/10 04:31:00;;;;;;;4.95;1.55;;;14.30;99.90;;;;;;4936510;29;20160;-77
2023/05/10 04:33:26;;;;;;;4.53;1.48;;;14.30;99.90;;;;;;4930094;29;20183;-77
2023/05/10 04:35:53;;;;;;;1.70;1.08;;;14.30;99.90;;;;;;4931015;29;20039;-76
2023/05/10 04:38:20;;;;;;;1.33;0.77;;;14.30;99.90;;;;;;4937197;29;20051;-77
2023/05/10 04:40:46;;;;;;;4.32;1.48;;;14.30;99.90;;;;;;4934000;29;20051;-77
2023/05/10 04:43:13;;;;;;;4.78;0.88;;;14.30;99.90;;;;;;4940768;29;20159;-76
2023/05/10 04:45:40;;;;;;;1.10;0.70;;;14.30;99.90;;;;;;4936615;29;20058;-77
2023/05/10 04:48:07;;;;;;;2.60;1.30;;;14.30;99.90;;;;;;4936674;29;20434;-76
2023/05/10 04:50:34;;;;;;;1.20;1.05;;;14.30;99.90;;;;;;4926192;29;20060;-77
2023/05/10 04:53:00;;;;;;;0.80;0.80;;;14.30;99.90;;;;;;4926873;29;20055;-77
2023/05/10 04:55:27;;;;;;;2.53;1.52;;;14.30;99.90;;;;;;4933529;29;20052;-76
2023/05/10 04:57:57;;;;;;;2.58;1.33;;;14.30;99.90;;;;;;4935477;29;20051;-77
2023/05/10 05:00:24;;;;;;;3.42;0.90;;;14.30;99.90;;;;;;4920607;29;20130;-77
2023/05/10 05:02:51;;;;;;;3.17;1.20;;;14.30;99.90;;;;;;4926809;29;20048;-77
2023/05/10 05:05:18;;;;;;;3.08;1.25;;;14.30;99.90;;;;;;4933689;29;20059;-76
2023/05/10 05:07:45;;;;;;;1.05;0.90;;;14.30;99.90;;;;;;4934195;29;20082;-77
2023/05/10 05:10:12;;;;;;;2.72;0.90;;;14.30;99.90;;;;;;4929386;29;20171;-77
2023/05/10 05:12:39;;;;;;;2.60;0.90;;;14.30;99.90;;;;;;4923828;29;20067;-77
2023/05/10 05:15:08;;;;;;;1.02;0.68;;;14.30;99.90;;;;;;4925750;29;20150;-76
2023/05/10 05:17:35;;;;;;;0.90;0.63;;;14.30;99.90;;;;;;4929932;29;20055;-75
2023/05/10 05:20:03;;;;;;;2.88;1.00;;;14.30;99.90;;;;;;4935074;29;20054;-77
2023/05/10 05:22:29;;;;;;;0.70;0.60;;;14.30;99.90;;;;;;4934579;29;20071;-76
2023/05/10 05:24:58;;;;;;;2.28;0.73;;;14.30;99.90;;;;;;4934687;29;20060;-77
2023/05/10 05:27:26;;;;;;;2.30;0.90;;;14.30;99.90;;;;;;4932562;29;20063;-77
2023/05/10 05:29:56;;;;;;;2.83;0.75;;;14.30;99.90;;;;;;4936179;29;20131;-76
2023/05/10 05:32:23;;;;;;;2.50;0.80;;;14.30;99.90;;;;;;4926729;29;20099;-76
2023/05/10 05:34:51;;;;;;;3.05;1.05;;;14.30;99.90;;;;;;4932628;29;20039;-77
2023/05/10 05:37:19;;;;;;;2.67;0.80;;;14.30;99.90;;;;;;4931574;29;20070;-76
2023/05/10 05:39:46;;;;;;;1.25;0.70;;;14.30;99.90;;;;;;4936089;29;20492;-78
2023/05/10 05:42:13;;;;;;;1.80;0.60;;;14.30;99.90;;;;;;4937277;29;20051;-78
2023/05/10 05:44:40;;;;;;;1.80;0.70;;;14.30;99.90;;;;;;4933707;29;20055;-77
2023/05/10 05:47:07;;;;;;;1.90;0.82;;;14.30;99.90;;;;;;4926622;29;20594;-78
2023/05/10 05:49:33;;;;;;;3.95;0.95;;;14.20;99.90;;;;;;4929634;29;20066;-78
2023/05/10 05:52:02;;;;;;;0.90;0.60;;;14.30;99.90;;;;;;4936035;29;20047;-78
2023/05/10 05:54:29;;;;;;;0.80;0.80;;;14.30;99.90;;;;;;4934563;29;20055;-77
2023/05/10 05:56:57;;;;;;;2.67;0.90;;;14.30;99.90;;;;;;4924912;29;20064;-78
2023/05/10 05:59:27;;;;;;;1.92;1.00;;;14.30;99.90;;;;;;4933876;29;20039;-78
2023/05/10 06:01:53;;;;;;;2.20;1.00;;;14.30;99.90;;;;;;4933674;29;20062;-77
2023/05/10 06:04:20;;;;;;;1.80;0.75;;;14.40;99.90;;;;;;4949606;29;20052;-77
2023/05/10 06:06:47;;;;;;;1.92;0.98;;;14.40;99.90;;;;;;4936358;29;20052;-77
2023/05/10 06:09:14;;;;;;;6.15;1.15;;;14.50;99.90;;;;;;4936227;29;20086;-77
2023/05/10 06:11:41;;;;;;;6.40;1.20;;;14.50;99.90;;;;;;4950565;29;20048;-77
2023/05/10 06:14:08;;;;;;;6.95;1.20;;;14.60;99.90;;;;;;4927858;29;20136;-77
2023/05/10 06:16:34;;;;;;;5.18;1.13;;;14.60;99.90;;;;;;4933352;29;20054;-78
2023/05/10 06:19:02;;;;;;;1.90;0.90;;;14.70;99.90;;;;;;4934022;29;20094;-77
2023/05/10 06:21:29;;;;;;;2.17;0.80;;;14.70;99.90;;;;;;4927111;29;20056;-77
2023/05/10 06:23:56;;;;;;;2.00;1.00;;;14.80;99.90;;;;;;4927782;29;20064;-77
2023/05/10 06:26:23;;;;;;;4.18;1.15;;;14.80;99.90;;;;;;4932793;29;20075;-77
2023/05/10 06:28:50;;;;;;;1.73;0.98;;;14.80;99.90;;;;;;4924515;29;20063;-77
2023/05/10 06:31:17;;;;;;;3.08;0.93;;;14.80;99.90;;;;;;4934449;29;20051;-76
2023/05/10 06:33:44;;;;;;;2.58;0.90;;;14.90;99.90;;;;;;4927603;29;20043;-77
2023/05/10 06:36:11;;;;;;;5.60;1.13;;;14.90;99.90;;;;;;4927719;29;20056;-77
2023/05/10 06:38:37;;;;;;;1.77;0.80;;;14.90;99.90;;;;;;4935876;29;20123;-78
2023/05/10 06:41:05;;;;;;;3.60;1.27;;;14.90;99.90;;;;;;4950975;29;20143;-77
2023/05/10 06:43:32;;;;;;;2.45;0.90;;;14.80;99.90;;;;;;4923939;29;20448;-77
2023/05/10 06:45:58;;;;;;;3.05;1.13;;;14.80;99.90;;;;;;4936696;29;20056;-78
2023/05/10 06:48:25;;;;;;;2.22;0.95;;;14.80;99.90;;;;;;4934637;29;20092;-77
2023/05/10 06:50:52;;;;;;;5.30;1.50;;;14.80;99.90;;;;;;4933761;29;20062;-77
2023/05/10 06:53:18;;;;;;;4.00;1.50;;;14.80;99.90;;;;;;4919954;29;20066;-77
2023/05/10 06:55:46;;;;;;;2.83;1.30;;;14.80;99.90;;;;;;4931391;29;20056;-77
2023/05/10 06:58:12;;;;;;;3.00;1.55;;;14.70;99.90;;;;;;4950473;29;20058;-77
2023/05/10 07:00:40;;;;;;;2.92;1.40;;;14.70;99.90;;;;;;4937282;29;20409;-77
2023/05/10 07:03:07;;;;;;;2.33;1.13;;;14.70;99.90;;;;;;4939208;29;20052;-77
2023/05/10 07:05:34;;;;;;;3.88;1.05;;;14.70;99.90;;;;;;4929212;29;20044;-76
2023/05/10 07:08:01;;;;;;;3.22;0.90;;;14.70;99.90;;;;;;4938737;29;20071;-78
2023/05/10 07:10:28;;;;;;;2.72;1.20;;;14.70;99.90;;;;;;4930440;29;20526;-77
2023/05/10 07:12:55;;;;;;;3.00;1.10;;;14.80;99.90;;;;;;4937479;29;20056;-77
2023/05/10 07:15:22;;;;;;;3.08;1.15;;;14.70;99.90;;;;;;4924536;29;20449;-77
2023/05/10 07:17:48;;;;;;;3.03;0.80;;;14.80;99.90;;;;;;4937032;29;20051;-76
2023/05/10 07:20:15;;;;;;;3.17;1.58;;;14.70;99.90;;;;;;4937158;29;20058;-76
2023/05/10 07:22:42;;;;;;;3.95;1.17;;;14.80;99.90;;;;;;4929573;29;20068;-76
2023/05/10 07:25:09;;;;;;;2.17;1.00;;;14.80;99.90;;;;;;4926781;29;20138;-76
2023/05/10 07:27:36;;;;;;;4.13;0.95;;;14.80;99.90;;;;;;4935960;29;20051;-76
2023/05/10 07:30:03;;;;;;;2.30;0.82;;;14.80;99.90;;;;;;4935695;29;20142;-76
2023/05/10 07:32:30;;;;;;;2.85;0.80;;;14.80;99.90;;;;;;4930585;29;20094;-76
2023/05/10 07:34:57;;;;;;;3.92;1.00;;;14.90;99.90;;;;;;4937467;29;20052;-76
2023/05/10 07:37:23;;;;;;;2.35;0.70;;;14.90;99.90;;;;;;4927844;29;20048;-76
2023/05/10 07:39:50;;;;;;;4.40;0.82;;;15.00;99.90;;;;;;4928812;29;20054;-77
2023/05/10 07:42:17;;;;;;;5.68;1.20;;;15.00;99.90;;;;;;4936280;29;20522;-77
2023/05/10 07:44:44;;;;;;;6.22;0.90;;;15.00;99.90;;;;;;4920796;29;20048;-77
2023/05/10 07:47:10;;;;;;;4.32;0.98;;;15.10;99.90;;;;;;4933495;29;20486;-77
2023/05/10 07:49:38;;;;;;;2.15;1.10;;;15.10;99.90;;;;;;4951095;29;20054;-76
2023/05/10 07:52:04;;;;;;;4.07;0.85;;;15.20;99.90;;;;;;4934558;29;20060;-76
2023/05/10 07:54:31;;;;;;;2.83;0.90;;;15.20;99.90;;;;;;4950649;29;20504;-77
2023/05/10 07:56:59;;;;;;;4.78;0.98;;;15.20;99.90;;;;;;4944459;29;20056;-77
2023/05/10 07:59:26;;;;;;;3.10;0.93;;;15.30;99.90;;;;;;4922060;29;20084;-77
2023/05/10 08:01:53;;;;;;;4.35;1.00;;;15.30;99.90;;;;;;4932195;29;20412;-77
2023/05/10 08:04:19;;;;;;;1.58;0.75;;;15.40;99.90;;;;;;4950734;29;20048;-77
2023/05/10 08:06:46;;;;;;;1.58;0.90;;;15.50;99.90;;;;;;4934044;29;20107;-77
2023/05/10 08:09:13;;;;;;;4.05;1.02;;;15.60;99.90;;;;;;4934706;29;20040;-76
2023/05/10 08:11:40;;;;;;;3.13;0.80;;;15.60;99.90;;;;;;4933004;29;20039;-77
2023/05/10 08:14:06;;;;;;;14.15;1.27;;;15.70;99.90;;;;;;4951077;29;20376;-76
2023/05/10 08:16:34;;;;;;;3.30;0.88;;;15.70;99.90;;;;;;4935571;29;20054;-76
2023/05/10 08:19:01;;;;;;;3.45;0.90;;;15.80;99.90;;;;;;4927243;29;20469;-76
2023/05/10 08:21:28;;;;;;;3.35;0.77;;;15.90;99.90;;;;;;4934626;29;20051;-76
2023/05/10 08:23:55;;;;;;;2.28;0.75;;;15.90;99.90;;;;;;4948046;29;20583;-76
2023/05/10 08:26:21;;;;;;;2.83;0.82;;;15.90;99.90;;;;;;4932251;29;20256;-76
2023/05/10 08:28:48;;;;;;;8.35;0.93;;;15.90;99.90;;;;;;4921634;29;20087;-76
2023/05/10 08:31:15;;;;;;;5.53;0.90;;;15.90;99.90;;;;;;4935615;29;20086;-78
2023/05/10 08:33:42;;;;;;;7.00;0.98;;;16.00;99.90;;;;;;4935095;29;20051;-76
2023/05/10 08:36:13;;;;;;;2.72;0.98;;;16.10;99.90;;;;;;4932955;29;20139;-78
2023/05/10 08:38:40;;;;;;;3.97;0.77;;;16.10;99.90;;;;;;4935176;29;20066;-76
2023/05/10 08:41:07;;;;;;;4.43;1.02;;;16.10;99.90;;;;;;4935238;29;20051;-78
2023/05/10 08:43:36;;;;;;;6.63;0.80;;;16.20;99.90;;;;;;4924186;29;20098;-75
2023/05/10 08:46:05;;;;;;;3.13;0.60;;;16.20;99.90;;;;;;4929512;29;20059;-78
2023/05/10 08:48:34;;;;;;;5.95;0.63;;;16.20;99.90;;;;;;4936042;29;20475;-78
2023/05/10 08:51:02;;;;;;;2.22;0.68;;;16.20;99.90;;;;;;4937244;29;20051;-78
2023/05/10 08:53:31;;;;;;;1.98;0.60;;;16.20;99.90;;;;;;4934663;29;20087;-75
2023/05/10 08:55:58;;;;;;;1.27;0.50;;;16.20;99.90;;;;;;4930552;29;20056;-78
2023/05/10 08:58:25;;;;;;;2.78;0.93;;;16.20;99.90;;;;;;4925725;29;20058;-78
2023/05/10 09:00:53;;;;;;;2.35;0.80;;;16.20;99.90;;;;;;4935720;29;20054;-77
2023/05/10 09:03:20;;;;;;;4.00;0.60;;;16.20;99.90;;;;;;4934765;29;20048;-77
2023/05/10 09:05:48;;;;;;;2.47;0.60;;;16.20;99.90;;;;;;4933138;29;20051;-77
2023/05/10 09:08:18;;;;;;;2.17;0.70;;;16.20;99.90;;;;;;4926342;29;20051;-78
2023/05/10 09:10:47;;;;;;;;;;;16.30;99.90;;;;;;4946729;29;20130;-78
2023/05/10 09:13:17;;;;;;;1.67;0.60;;;16.30;99.90;;;;;;4935111;29;19922;-77
2023/05/10 09:15:45;;;;;;;;;;;16.20;99.90;;;;;;4928479;29;20151;-78
2023/05/10 09:18:12;;;;;;;3.58;0.60;;;16.30;99.90;;;;;;4937181;29;19929;-78
2023/05/10 09:20:40;;;;;;;1.80;0.45;;;16.20;99.90;;;;;;4938278;29;20080;-78
2023/05/10 09:23:07;;;;;;;2.75;0.55;;;16.30;99.90;;;;;;4944713;29;20077;-77
2023/05/10 09:25:34;;;;;;;2.75;0.70;;;16.30;99.90;;;;;;4942837;29;20070;-78
2023/05/10 09:28:01;;;;;;;2.58;0.77;;;16.40;99.90;;;;;;4929650;29;20103;-77
2023/05/10 09:30:30;;;;;;;3.83;0.80;;;16.40;99.90;;;;;;4940062;29;20059;-77
2023/05/10 09:32:58;;;;;;;3.20;0.70;;;16.50;99.90;;;;;;4943261;29;20067;-78
2023/05/10 09:35:30;;;;;;;2.75;0.98;;;16.50;99.90;;;;;;4935580;29;20087;-78
2023/05/10 09:38:00;;;;;;;2.13;0.50;;;16.50;99.90;;;;;;4974908;23;20442;-77
2023/05/10 09:40:29;;;;;;;4.05;0.88;;;16.50;99.90;;;;;;5002493;28;20061;-77
2023/05/10 09:43:06;;;;;;;1.25;0.40;;;16.50;99.90;;;;;;5010409;28;20057;-77
2023/05/10 09:45:35;;;;;;;3.08;0.80;;;16.50;99.90;;;;;;5001374;28;20053;-77
2023/05/10 09:48:04;;;;;;;3.75;0.57;;;16.50;99.90;;;;;;5007956;28;20046;-77
2023/05/10 09:50:31;;;;;;;4.78;0.65;;;16.60;99.90;;;;;;5005001;28;20048;-77
2023/05/10 09:53:02;;;;;;;2.38;0.70;;;16.60;99.90;;;;;;5000503;28;20145;-77
2023/05/10 09:55:43;;;;;;;1.45;0.50;;;16.70;99.90;;;;;;4998316;28;20054;-77
2023/05/10 09:58:10;;;;;;;2.25;0.45;;;16.70;99.90;;;;;;5007416;28;20137;-77
2023/05/10 10:00:39;;;;;;;1.15;0.60;;;16.80;99.90;;;;;;5010215;28;20092;-76
2023/05/10 10:03:13;;;;;;;2.75;0.60;;;16.80;99.90;;;;;;5003719;28;20081;-77
2023/05/10 10:05:42;;;;;;;3.72;0.50;;;16.90;99.90;;;;;;5003728;28;20128;-78
2023/05/10 10:08:09;;;;;;;2.28;0.65;;;16.90;99.90;;;;;;4999709;28;20437;-76
2023/05/10 10:10:36;;;;;;;3.42;1.00;;;16.90;99.90;;;;;;5006703;28;20053;-77
2023/05/10 10:13:04;;;;;;;2.03;0.60;;;16.90;99.90;;;;;;5014767;28;20062;-77
2023/05/10 10:15:33;;;;;;;3.08;0.47;;;17.00;99.90;;;;;;5013648;28;20077;-77
2023/05/10 10:18:00;;;;;;;3.78;0.40;;;17.00;99.90;;;;;;5018292;28;20046;-77
2023/05/10 10:20:28;;;;;;;0.75;0.40;;;16.90;99.90;;;;;;5004911;28;20153;-77
2023/05/10 10:22:55;;;;;;;1.38;0.45;;;16.90;99.90;;;;;;5006910;28;20046;-77
2023/05/10 10:25:22;;;;;;;2.45;0.77;;;17.00;99.90;;;;;;4995213;28;20050;-77
2023/05/10 10:27:52;;;;;;;1.80;0.50;;;17.00;99.90;;;;;;5002896;28;20046;-77
2023/05/10 10:30:18;;;;;;;1.55;0.52;;;17.00;99.90;;;;;;5007546;28;20113;-76
2023/05/10 10:33:22;;;;;;;2.72;0.60;;;17.00;99.90;;;;;;5008566;28;20080;-77
2023/05/10 10:35:59;;;;;;;7.28;0.75;;;17.00;99.90;;;;;;5008502;28;20471;-77
2023/05/10 10:38:35;;;;;;;;;;;17.00;99.90;;;;;;5004312;28;20050;-77
2023/05/10 10:41:07;;;;;;;6.18;1.10;;;17.00;99.90;;;;;;5014577;28;19921;-77
2023/05/10 10:43:34;;;;;;;1.70;0.70;;;17.00;99.90;;;;;;5011413;28;20049;-77
2023/05/10 10:46:13;;;;;;;2.47;0.73;;;17.10;99.90;;;;;;5011969;28;20488;-78
2023/05/10 10:48:41;;;;;;;1.83;0.47;;;17.20;99.90;;;;;;5007566;28;20436;-77
2023/05/10 10:51:08;;;;;;;4.70;1.00;;;17.40;99.90;;;;;;5009118;28;20068;-77
2023/05/10 10:53:40;;;;;;;1.27;0.70;;;17.50;99.90;;;;;;5005980;28;20596;-76
2023/05/10 10:56:09;;;;;;;3.70;0.77;;;17.50;99.90;;;;;;4999029;28;20559;-77
2023/05/10 10:58:39;;;;;;;4.15;0.90;;;17.60;99.90;;;;;;5013268;28;20046;-77
2023/05/10 11:01:17;;;;;;;2.38;0.70;;;17.70;99.90;;;;;;5012405;28;20081;-77
2023/05/10 11:04:02;;;;;;;2.17;0.60;;;17.80;99.90;;;;;;5006319;28;20169;-77
2023/05/10 11:06:34;;;;;;;4.22;0.80;;;18.00;99.90;;;;;;5010083;28;20476;-77
2023/05/10 11:09:12;;;;;;;3.72;0.75;;;18.10;99.90;;;;;;5008267;28;20068;-76
2023/05/10 11:11:54;;;;;;;2.17;0.73;;;18.20;99.90;;;;;;5013388;28;20076;-76
2023/05/10 11:14:22;;;;;;;1.83;0.60;;;18.30;99.90;;;;;;5004125;28;20057;-78
2023/05/10 11:16:49;;;;;;;2.20;0.63;;;18.30;99.90;;;;;;5002137;28;20081;-78
2023/05/10 11:19:17;;;;;;;3.25;0.70;;;18.20;99.90;;;;;;5007030;28;20050;-76
2023/05/10 11:22:03;;;;;;;2.60;0.60;;;18.20;99.90;;;;;;5006252;28;20124;-75
2023/05/10 11:24:30;;;;;;;2.15;0.60;;;18.10;99.90;;;;;;4999345;28;20070;-74
2023/05/10 11:26:56;;;;;;;4.05;0.93;;;18.10;99.90;;;;;;4998575;28;20054;-76
2023/05/10 11:29:26;;;;;;;1.80;0.70;;;18.10;99.90;;;;;;5003646;28;20050;-76
2023/05/10 11:31:56;;;;;;;1.42;0.68;;;18.10;99.90;;;;;;5002312;28;20500;-76
2023/05/10 11:34:30;;;;;;;;;;;18.00;99.90;;;;;;5011886;28;20482;-76
2023/05/10 11:36:57;;;;;;;3.97;0.50;;;18.00;99.90;;;;;;5005492;28;20016;-76
2023/05/10 11:39:31;;;;;;;4.28;0.88;;;18.00;99.90;;;;;;5000312;28;20052;-76
2023/05/10 11:41:58;;;;;;;2.75;0.70;;;18.00;99.90;;;;;;5000100;28;20050;-78
2023/05/10 11:44:32;;;;;;;1.45;0.40;;;18.00;99.90;;;;;;5006675;28;20133;-78
2023/05/10 11:47:02;;;;;;;3.17;0.75;;;17.90;99.90;;;;;;5004237;28;20108;-76
2023/05/10 11:49:29;;;;;;;2.35;0.70;;;17.80;99.90;;;;;;5004905;28;20054;-76
2023/05/10 11:52:07;;;;;;;0.93;0.57;;;17.60;99.90;;;;;;5006058;28;20093;-78
2023/05/10 11:54:37;;;;;;;3.20;0.63;;;17.50;99.90;;;;;;5014957;28;20497;-76
2023/05/10 11:57:04;;;;;;;3.65;0.80;;;17.40;99.90;;;;;;5001319;28;20133;-76
2023/05/10 11:59:30;;;;;;;2.53;0.60;;;17.50;99.90;;;;;;5003785;28;20048;-76
2023/05/10 12:01:58;;;;;;;1.15;0.57;;;17.50;99.90;;;;;;5003800;28;20176;-76
2023/05/10 12:04:25;;;;;;;0.98;0.35;;;17.60;99.90;;;;;;5003554;28;20137;-76
2023/05/10 12:06:52;;;;;;;1.58;0.50;;;17.60;99.90;;;;;;5005963;28;20058;-77
2023/05/10 12:09:19;;;;;;;1.38;0.60;;;17.40;99.90;;;;;;5000488;28;20050;-76
2023/05/10 12:12:05;;;;;;;8.50;0.88;;;17.20;99.90;;;;;;5000648;28;20054;-76
2023/05/10 12:14:34;;;;;;;0.70;0.47;;;17.10;99.90;;;;;;5003665;28;20046;-76
2023/05/10 12:17:01;;;;;;;2.30;0.50;;;16.80;99.90;;;;;;5004010;28;20116;-76
2023/05/10 12:19:28;;;;;;;1.65;0.70;;;16.70;99.90;;;;;;5003879;28;20062;-76
2023/05/10 12:21:55;;;;;;;0.77;0.50;;;16.70;99.90;;;;;;5006844;28;20050;-77
2023/05/10 12:24:21;;;;;;;0.90;0.50;;;16.70;99.90;;;;;;4999391;28;20047;-76
2023/05/10 12:26:49;;;;;;;0.55;0.32;;;16.70;99.90;;;;;;5001947;28;20137;-76
2023/05/10 12:29:18;;;;;;;1.15;0.50;;;16.80;99.90;;;;;;5010622;28;20445;-76
2023/05/10 12:31:58;;;;;;;2.00;0.40;;;16.90;99.90;;;;;;5003143;28;20049;-76
2023/05/10 12:34:38;;;;;;;1.33;0.43;;;16.90;99.90;;;;;;5010419;28;20128;-76
2023/05/10 12:37:05;;;;;;;1.23;0.63;;;17.10;99.90;;;;;;5005017;28;20050;-76
2023/05/10 12:39:44;;;;;;;3.00;0.63;;;17.20;99.90;;;;;;4997497;28;20045;-76
2023/05/10 12:42:11;;;;;;;1.55;0.40;;;17.30;99.90;;;;;;4999586;28;20045;-76
2023/05/10 12:44:39;;;;;;;1.40;0.20;;;17.40;99.90;;;;;;5002629;28;20069;-77
2023/05/10 12:47:05;;;;;;;1.15;0.40;;;17.60;99.90;;;;;;5003177;28;20129;-76
2023/05/10 12:49:32;;;;;;;0.40;0.30;;;17.70;99.90;;;;;;5002358;28;20045;-76
2023/05/10 12:51:59;;;;;;;1.27;0.52;;;17.90;99.90;;;;;;5005900;28;20141;-77
2023/05/10 12:54:26;;;;;;;1.20;0.20;;;18.10;99.90;;;;;;5009254;28;20502;-78
2023/05/10 12:56:53;;;;;;;1.70;0.30;;;18.30;99.90;;;;;;5011442;28;20058;-78
2023/05/10 12:59:19;;;;;;;0.40;0.20;;;18.40;99.90;;;;;;5011360;28;20057;-78